Time;durP1;ratioP1;P1;durP2;ratioP2;P2;SDS_P1;SDS_P2;PMS_P1;PMS_P2;Temp;Humidity;BMP_temperature;BMP_pressure;BME280_temperature;BME280_humidity;BME280_pressure;Samples;Min_cycle;Max_cycle;Signal;HPM_P1;HPM_P2
2022/03/04 00:00:43;;;;;;;91.05;60.13;;;;;;;;;;4975234;28;20363;-68
2022/03/04 00:03:48;;;;;;;85.00;56.58;;;;;;;;;;4974988;28;20049;-68
2022/03/04 00:06:52;;;;;;;91.93;56.85;;;;;;;;;;4975185;28;20054;-67
2022/03/04 00:09:56;;;;;;;98.18;63.83;;;;;;;;;;4975160;28;20053;-68
2022/03/04 00:13:01;;;;;;;88.47;57.95;;;;;;;;;;4974844;28;20509;-68
2022/03/04 00:16:06;;;;;;;99.47;61.00;;;;;;;;;;4974599;28;20062;-67
2022/03/04 00:19:12;;;;;;;87.40;57.45;;;;;;;;;;4974601;28;20422;-68
2022/03/04 00:22:20;;;;;;;96.13;60.40;;;;;;;;;;4974939;28;20046;-68
2022/03/04 00:25:25;;;;;;;93.10;58.85;;;;;;;;;;4974857;28;20403;-68
2022/03/04 00:28:29;;;;;;;85.60;53.70;;;;;;;;;;4974478;28;20050;-68
2022/03/04 00:31:34;;;;;;;75.40;51.55;;;;;;;;;;4974882;28;20050;-68
2022/03/04 00:34:38;;;;;;;79.40;51.85;;;;;;;;;;4974602;28;20050;-68
2022/03/04 00:37:42;;;;;;;80.00;52.75;;;;;;;;;;4951534;28;20054;-68
2022/03/04 00:40:48;;;;;;;80.45;52.08;;;;;;;;;;4974637;28;20061;-68
2022/03/04 00:43:53;;;;;;;77.30;52.58;;;;;;;;;;4974171;28;20123;-68
2022/03/04 00:46:57;;;;;;;83.75;54.25;;;;;;;;;;4974236;28;20514;-68
2022/03/04 00:50:02;;;;;;;87.68;55.45;;;;;;;;;;4973784;28;20047;-68
2022/03/04 00:53:06;;;;;;;89.93;56.10;;;;;;;;;;4962096;28;20065;-68
2022/03/04 00:56:11;;;;;;;90.28;56.65;;;;;;;;;;4973984;28;20049;-68
2022/03/04 00:59:15;;;;;;;84.22;56.30;;;;;;;;;;4974129;28;20053;-68
2022/03/04 01:02:20;;;;;;;95.90;58.35;;;;;;;;;;4974135;28;20041;-68
2022/03/04 01:05:24;;;;;;;92.57;58.83;;;;;;;;;;4974058;28;20050;-68
2022/03/04 01:08:28;;;;;;;99.40;58.05;;;;;;;;;;4974283;28;20493;-68
2022/03/04 01:11:33;;;;;;;87.95;58.08;;;;;;;;;;4974009;28;20049;-68
2022/03/04 01:14:37;;;;;;;91.35;60.13;;;;;;;;;;4973743;28;20050;-68
2022/03/04 01:17:41;;;;;;;93.05;57.00;;;;;;;;;;4974055;28;20057;-68
2022/03/04 01:20:46;;;;;;;89.88;58.50;;;;;;;;;;4973890;28;20053;-68
2022/03/04 01:23:50;;;;;;;94.75;58.45;;;;;;;;;;4973799;28;20069;-68
2022/03/04 01:26:55;;;;;;;91.18;57.90;;;;;;;;;;4973896;28;20054;-68
2022/03/04 01:30:00;;;;;;;90.30;57.60;;;;;;;;;;4973500;28;20046;-68
2022/03/04 01:33:04;;;;;;;86.68;56.53;;;;;;;;;;4973492;28;20057;-68
2022/03/04 01:36:09;;;;;;;85.88;56.28;;;;;;;;;;4973682;28;20390;-68
2022/03/04 01:39:13;;;;;;;93.57;55.47;;;;;;;;;;4973292;28;20062;-68
2022/03/04 01:42:18;;;;;;;88.95;54.85;;;;;;;;;;4973150;28;20050;-68
2022/03/04 01:45:22;;;;;;;81.40;53.50;;;;;;;;;;4973237;28;20045;-68
2022/03/04 01:48:26;;;;;;;88.25;53.85;;;;;;;;;;4973526;28;20061;-68
2022/03/04 01:51:31;;;;;;;76.35;50.45;;;;;;;;;;4973157;28;20046;-68
2022/03/04 01:54:35;;;;;;;71.70;47.03;;;;;;;;;;4973059;28;20042;-68
2022/03/04 01:57:43;;;;;;;71.15;45.58;;;;;;;;;;4973186;28;20065;-68
2022/03/04 02:00:47;;;;;;;65.80;40.88;;;;;;;;;;4973060;28;20527;-68
2022/03/04 02:03:51;;;;;;;62.80;40.63;;;;;;;;;;4973275;28;20042;-68
2022/03/04 02:06:55;;;;;;;61.63;41.03;;;;;;;;;;4972822;28;20050;-68
2022/03/04 02:10:03;;;;;;;59.25;37.72;;;;;;;;;;4972861;28;20038;-68
2022/03/04 02:13:07;;;;;;;60.58;38.30;;;;;;;;;;4972981;28;20046;-68
2022/03/04 02:16:18;;;;;;;62.60;39.58;;;;;;;;;;4972580;28;20062;-68
2022/03/04 02:19:23;;;;;;;51.67;33.28;;;;;;;;;;4972651;28;20069;-68
2022/03/04 02:22:28;;;;;;;47.88;31.85;;;;;;;;;;4972900;28;20034;-68
2022/03/04 02:25:32;;;;;;;45.50;30.88;;;;;;;;;;4972560;28;20191;-68
2022/03/04 02:28:37;;;;;;;37.17;26.58;;;;;;;;;;4972511;28;20038;-69
2022/03/04 02:31:42;;;;;;;45.15;27.10;;;;;;;;;;4972646;28;20050;-68
2022/03/04 02:34:46;;;;;;;35.50;23.65;;;;;;;;;;4960817;28;20073;-69
2022/03/04 02:37:51;;;;;;;35.50;23.75;;;;;;;;;;4972647;28;20441;-69
2022/03/04 02:40:56;;;;;;;34.47;22.42;;;;;;;;;;4972281;28;20501;-68
2022/03/04 02:44:04;;;;;;;35.13;22.00;;;;;;;;;;4972514;28;20049;-68
2022/03/04 02:47:09;;;;;;;31.77;20.25;;;;;;;;;;4972358;28;20402;-69
2022/03/04 02:50:13;;;;;;;31.63;21.23;;;;;;;;;;4972495;28;20053;-68
2022/03/04 02:53:18;;;;;;;30.73;21.38;;;;;;;;;;4972437;28;20505;-68
2022/03/04 02:56:22;;;;;;;32.50;22.92;;;;;;;;;;4972296;28;20045;-68
2022/03/04 02:59:26;;;;;;;35.83;23.55;;;;;;;;;;4960224;28;20054;-68
2022/03/04 03:02:30;;;;;;;36.42;23.40;;;;;;;;;;4960415;28;20045;-69
2022/03/04 03:05:35;;;;;;;37.22;24.73;;;;;;;;;;4972286;28;20053;-68
2022/03/04 03:08:39;;;;;;;41.97;25.55;;;;;;;;;;4972353;28;20050;-69
2022/03/04 03:11:44;;;;;;;41.15;26.90;;;;;;;;;;4971929;28;20042;-68
2022/03/04 03:14:48;;;;;;;38.25;25.20;;;;;;;;;;4960065;28;20049;-68
2022/03/04 03:17:52;;;;;;;40.25;24.35;;;;;;;;;;4972090;28;20407;-68
2022/03/04 03:20:56;;;;;;;36.33;23.48;;;;;;;;;;4971919;28;20513;-69
2022/03/04 03:24:01;;;;;;;34.72;24.05;;;;;;;;;;4972054;28;20419;-69
2022/03/04 03:27:06;;;;;;;36.63;25.65;;;;;;;;;;4972109;28;20395;-69
2022/03/04 03:30:11;;;;;;;35.55;24.40;;;;;;;;;;4972085;28;20042;-69
2022/03/04 03:33:15;;;;;;;35.75;24.70;;;;;;;;;;4972122;28;20366;-68
2022/03/04 03:36:20;;;;;;;40.38;25.23;;;;;;;;;;4971990;28;20050;-68
2022/03/04 03:39:25;;;;;;;37.90;24.90;;;;;;;;;;4971646;28;20407;-69
2022/03/04 03:42:29;;;;;;;36.55;23.98;;;;;;;;;;4971455;28;20041;-69
2022/03/04 03:45:34;;;;;;;38.00;24.58;;;;;;;;;;4971804;28;20398;-68
2022/03/04 03:48:40;;;;;;;36.50;24.05;;;;;;;;;;4959811;28;20054;-69
2022/03/04 03:51:44;;;;;;;34.70;23.05;;;;;;;;;;4948940;28;20528;-69
2022/03/04 03:54:49;;;;;;;36.38;23.95;;;;;;;;;;4971835;28;20509;-68
2022/03/04 03:57:53;;;;;;;33.17;21.70;;;;;;;;;;4971652;28;20050;-68
2022/03/04 04:00:58;;;;;;;32.47;20.80;;;;;;;;;;4971588;28;20042;-68
2022/03/04 04:04:02;;;;;;;32.33;20.83;;;;;;;;;;4971654;28;20395;-68
2022/03/04 04:07:08;;;;;;;34.08;21.90;;;;;;;;;;4971514;28;20046;-68
2022/03/04 04:10:12;;;;;;;36.63;21.33;;;;;;;;;;4971742;28;20073;-68
2022/03/04 04:13:16;;;;;;;31.25;20.88;;;;;;;;;;4959621;28;20506;-68
2022/03/04 04:16:20;;;;;;;30.55;19.67;;;;;;;;;;4971503;28;20127;-68
2022/03/04 04:19:26;;;;;;;29.15;20.48;;;;;;;;;;4971261;28;20406;-68
2022/03/04 04:22:30;;;;;;;29.20;20.02;;;;;;;;;;4970968;28;20045;-68
2022/03/04 04:25:34;;;;;;;32.75;21.52;;;;;;;;;;4974023;28;20061;-68
2022/03/04 04:28:38;;;;;;;32.95;21.98;;;;;;;;;;4962791;28;20411;-69
2022/03/04 04:31:43;;;;;;;31.15;20.98;;;;;;;;;;4974763;28;20054;-68
2022/03/04 04:34:48;;;;;;;33.72;21.73;;;;;;;;;;4974510;28;20494;-68
2022/03/04 04:37:53;;;;;;;36.03;22.30;;;;;;;;;;4974691;28;20047;-69
2022/03/04 04:40:57;;;;;;;39.80;23.17;;;;;;;;;;4974410;28;20041;-69
2022/03/04 04:44:01;;;;;;;35.00;23.55;;;;;;;;;;4974692;28;20062;-69
2022/03/04 04:47:06;;;;;;;35.90;21.70;;;;;;;;;;4974528;28;20391;-68
2022/03/04 04:50:11;;;;;;;32.33;21.85;;;;;;;;;;4974676;28;20387;-69
2022/03/04 04:53:16;;;;;;;32.15;21.17;;;;;;;;;;4974478;28;20054;-68
2022/03/04 04:56:21;;;;;;;31.50;21.17;;;;;;;;;;4973988;28;20229;-69
2022/03/04 04:59:25;;;;;;;38.42;22.50;;;;;;;;;;4962012;28;20053;-68
2022/03/04 05:02:30;;;;;;;37.28;21.88;;;;;;;;;;4974235;28;20050;-68
2022/03/04 05:05:35;;;;;;;34.67;21.90;;;;;;;;;;4974192;28;20053;-69
2022/03/04 05:08:39;;;;;;;41.55;24.20;;;;;;;;;;4974079;28;20058;-68
2022/03/04 05:11:44;;;;;;;40.80;26.55;;;;;;;;;;4973900;28;20042;-68
2022/03/04 05:14:48;;;;;;;39.88;25.70;;;;;;;;;;4973946;28;20065;-69
2022/03/04 05:17:52;;;;;;;38.00;24.98;;;;;;;;;;4973925;28;20038;-69
2022/03/04 05:20:57;;;;;;;44.20;25.92;;;;;;;;;;4974050;28;20050;-70
2022/03/04 05:24:02;;;;;;;43.38;25.98;;;;;;;;;;4962202;28;20501;-69
2022/03/04 05:27:07;;;;;;;42.28;25.23;;;;;;;;;;4973974;28;20046;-67
2022/03/04 05:30:13;;;;;;;40.80;26.25;;;;;;;;;;4974054;28;20038;-69
2022/03/04 05:33:17;;;;;;;38.83;25.98;;;;;;;;;;4974008;28;20057;-68
2022/03/04 05:36:22;;;;;;;46.17;26.58;;;;;;;;;;4961650;28;20042;-69
2022/03/04 05:39:25;;;;;;;40.10;25.90;;;;;;;;;;4973423;28;20062;-68
2022/03/04 05:42:31;;;;;;;47.45;25.85;;;;;;;;;;4973889;28;20046;-68
2022/03/04 05:45:36;;;;;;;65.78;28.25;;;;;;;;;;4973671;28;20046;-67
2022/03/04 05:48:40;;;;;;;38.85;25.30;;;;;;;;;;4973644;28;20046;-68
2022/03/04 05:51:45;;;;;;;43.47;25.10;;;;;;;;;;4950538;28;20054;-68
2022/03/04 05:54:49;;;;;;;37.42;26.08;;;;;;;;;;4973578;28;20049;-68
2022/03/04 05:57:53;;;;;;;38.58;24.20;;;;;;;;;;4961960;28;20046;-68
2022/03/04 06:00:58;;;;;;;41.60;23.98;;;;;;;;;;4973699;28;20419;-68
2022/03/04 06:04:02;;;;;;;41.70;26.05;;;;;;;;;;4973052;28;20045;-69
2022/03/04 06:07:06;;;;;;;41.97;25.40;;;;;;;;;;4973463;28;20427;-68
2022/03/04 06:10:11;;;;;;;40.55;25.58;;;;;;;;;;4973253;28;20505;-67
2022/03/04 06:13:15;;;;;;;31.15;21.85;;;;;;;;;;4973381;28;20045;-67
2022/03/04 06:16:20;;;;;;;36.85;22.50;;;;;;;;;;4960905;28;20057;-68
2022/03/04 06:19:24;;;;;;;37.75;21.85;;;;;;;;;;4972670;28;20054;-68
2022/03/04 06:22:28;;;;;;;36.47;19.70;;;;;;;;;;4972485;28;20042;-68
2022/03/04 06:25:33;;;;;;;30.88;19.25;;;;;;;;;;4973093;28;20053;-60
2022/03/04 06:28:37;;;;;;;33.78;20.60;;;;;;;;;;4973014;28;20054;-61
2022/03/04 06:31:41;;;;;;;32.97;22.20;;;;;;;;;;4972793;28;20383;-62
2022/03/04 06:34:46;;;;;;;22.20;16.70;;;;;;;;;;4972912;28;20058;-60
2022/03/04 06:37:50;;;;;;;22.65;15.65;;;;;;;;;;4972967;28;20371;-60
2022/03/04 06:40:54;;;;;;;24.75;15.60;;;;;;;;;;4960721;28;20062;-60
2022/03/04 06:43:59;;;;;;;23.65;15.35;;;;;;;;;;4972393;28;20066;-62
2022/03/04 06:47:03;;;;;;;26.17;14.02;;;;;;;;;;4972021;28;20041;-59
2022/03/04 06:50:08;;;;;;;19.60;13.93;;;;;;;;;;4972347;28;20055;-62
2022/03/04 06:53:12;;;;;;;21.70;14.07;;;;;;;;;;4972356;28;20045;-59
2022/03/04 06:56:17;;;;;;;21.65;13.75;;;;;;;;;;4972428;28;20054;-61
2022/03/04 06:59:21;;;;;;;24.80;14.90;;;;;;;;;;4960505;28;20058;-61
2022/03/04 07:02:26;;;;;;;23.90;14.15;;;;;;;;;;4972163;28;20050;-61
2022/03/04 07:05:30;;;;;;;26.48;14.07;;;;;;;;;;4972042;28;20046;-61
2022/03/04 07:08:37;;;;;;;20.77;14.43;;;;;;;;;;4972048;28;20061;-62
2022/03/04 07:11:41;;;;;;;21.52;14.82;;;;;;;;;;4971982;28;20049;-61
2022/03/04 07:14:46;;;;;;;24.85;15.57;;;;;;;;;;4960364;28;20058;-61
2022/03/04 07:17:51;;;;;;;23.67;15.40;;;;;;;;;;4972173;28;20057;-60
2022/03/04 07:20:56;;;;;;;24.95;16.25;;;;;;;;;;4972171;28;20128;-61
2022/03/04 07:24:01;;;;;;;27.40;16.58;;;;;;;;;;4971991;28;20367;-62
2022/03/04 07:27:05;;;;;;;1999.90;321.17;;;;;;;;;;4960096;28;20046;-67
2022/03/04 07:30:10;;;;;;;57.38;18.45;;;;;;;;;;4972057;28;20046;-68
2022/03/04 07:33:15;;;;;;;40.78;16.80;;;;;;;;;;4972000;28;20038;-66
2022/03/04 07:36:20;;;;;;;38.67;16.10;;;;;;;;;;4972740;28;20050;-68
2022/03/04 07:39:24;;;;;;;28.20;16.50;;;;;;;;;;4961121;28;20054;-67
2022/03/04 07:42:29;;;;;;;24.23;16.65;;;;;;;;;;4972585;28;20509;-69
2022/03/04 07:45:33;;;;;;;28.27;16.33;;;;;;;;;;4960871;28;20057;-69
2022/03/04 07:48:38;;;;;;;26.42;16.30;;;;;;;;;;4960643;28;20411;-70
2022/03/04 07:51:43;;;;;;;26.85;15.75;;;;;;;;;;4972310;28;20059;-71
2022/03/04 07:54:48;;;;;;;33.10;17.02;;;;;;;;;;4973031;28;20281;-70
2022/03/04 07:57:52;;;;;;;23.80;16.00;;;;;;;;;;4960726;28;20455;-70
2022/03/04 08:00:56;;;;;;;26.05;18.00;;;;;;;;;;4964171;28;20054;-71
2022/03/04 08:04:01;;;;;;;27.02;17.80;;;;;;;;;;4976539;28;20646;-72
2022/03/04 08:07:05;;;;;;;27.13;17.70;;;;;;;;;;4964304;28;20567;-72
2022/03/04 08:10:10;;;;;;;28.73;16.80;;;;;;;;;;4976165;28;20045;-69
2022/03/04 08:13:15;;;;;;;30.17;18.70;;;;;;;;;;4975964;28;20399;-69
2022/03/04 08:16:19;;;;;;;32.90;19.35;;;;;;;;;;4975859;28;20050;-70
2022/03/04 08:19:23;;;;;;;37.60;18.15;;;;;;;;;;4976376;28;20443;-68
2022/03/04 08:22:29;;;;;;;41.13;18.60;;;;;;;;;;4976690;28;20131;-75
2022/03/04 08:25:33;;;;;;;33.55;18.10;;;;;;;;;;4976284;28;20058;-71
2022/03/04 08:28:38;;;;;;;31.08;18.17;;;;;;;;;;4964216;28;20079;-67
2022/03/04 08:31:42;;;;;;;32.47;17.67;;;;;;;;;;4974971;28;20050;-68
2022/03/04 08:34:46;;;;;;;32.22;17.65;;;;;;;;;;4975405;28;20054;-70
2022/03/04 08:37:52;;;;;;;35.63;18.98;;;;;;;;;;4963258;28;20038;-70
2022/03/04 08:40:56;;;;;;;34.20;15.40;;;;;;;;;;4974451;28;20131;-68
2022/03/04 08:44:01;;;;;;;21.77;13.57;;;;;;;;;;4973987;28;20046;-67
2022/03/04 08:47:05;;;;;;;24.77;13.60;;;;;;;;;;4960466;28;20049;-65
2022/03/04 08:50:10;;;;;;;21.88;11.80;;;;;;;;;;4972647;28;20510;-66
2022/03/04 08:53:14;;;;;;;20.70;11.40;;;;;;;;;;4972637;28;20053;-67
2022/03/04 08:56:19;;;;;;;15.30;9.90;;;;;;;;;;4973275;28;20053;-66
2022/03/04 08:59:23;;;;;;;13.10;9.35;;;;;;;;;;4972939;28;20054;-67
2022/03/04 09:02:28;;;;;;;15.02;8.15;;;;;;;;;;4962619;28;20061;-67
2022/03/04 09:05:32;;;;;;;10.60;7.40;;;;;;;;;;4974599;28;20039;-68
2022/03/04 09:08:36;;;;;;;12.13;6.93;;;;;;;;;;4974520;28;20043;-68
2022/03/04 09:11:42;;;;;;;13.30;8.75;;;;;;;;;;4973096;28;20046;-68
2022/03/04 09:14:46;;;;;;;21.67;8.80;;;;;;;;;;4963010;28;20054;-68
2022/03/04 09:17:51;;;;;;;18.55;10.32;;;;;;;;;;4962598;28;20170;-68
2022/03/04 09:20:56;;;;;;;13.40;9.05;;;;;;;;;;4974052;28;20399;-67
2022/03/04 09:24:00;;;;;;;15.00;8.65;;;;;;;;;;4974880;28;20491;-67
2022/03/04 09:27:06;;;;;;;10.20;7.80;;;;;;;;;;4962594;28;20043;-67
2022/03/04 09:30:11;;;;;;;10.82;7.55;;;;;;;;;;4973862;28;20042;-68
2022/03/04 09:33:16;;;;;;;15.55;9.55;;;;;;;;;;4960172;28;20039;-68
2022/03/04 09:36:20;;;;;;;11.57;6.45;;;;;;;;;;4959798;28;20072;-66
2022/03/04 09:39:25;;;;;;;8.85;6.05;;;;;;;;;;4971610;28;20054;-65
2022/03/04 09:42:29;;;;;;;15.63;8.45;;;;;;;;;;4971892;28;20043;-68
2022/03/04 09:45:35;;;;;;;14.43;10.02;;;;;;;;;;4971968;28;20042;-68
2022/03/04 09:48:43;;;;;;;13.75;8.48;;;;;;;;;;4960135;28;20050;-67
2022/03/04 09:51:47;;;;;;;14.90;8.73;;;;;;;;;;4972183;28;20038;-66
2022/03/04 09:54:52;;;;;;;19.73;9.45;;;;;;;;;;4972763;28;20053;-66
2022/03/04 09:57:57;;;;;;;13.88;9.25;;;;;;;;;;4973368;28;20039;-67
2022/03/04 10:01:02;;;;;;;14.27;8.88;;;;;;;;;;4973306;28;20053;-67
2022/03/04 10:04:06;;;;;;;11.18;7.45;;;;;;;;;;4973170;28;20046;-68
2022/03/04 10:07:15;;;;;;;12.23;8.13;;;;;;;;;;4973064;28;20411;-69
2022/03/04 10:10:22;;;;;;;15.70;8.60;;;;;;;;;;4961130;28;20046;-66
2022/03/04 10:13:41;;;;;;;12.55;8.27;;;;;;;;;;4973227;28;20030;-67
2022/03/04 10:16:45;;;;;;;11.48;7.78;;;;;;;;;;4973663;28;20055;-68
2022/03/04 10:19:57;;;;;;;10.48;6.30;;;;;;;;;;4972849;28;20051;-68
2022/03/04 10:23:10;;;;;;;9.85;6.45;;;;;;;;;;4971128;28;20043;-69
2022/03/04 10:26:15;;;;;;;11.50;7.15;;;;;;;;;;4973110;28;20035;-66
2022/03/04 10:29:20;;;;;;;12.00;7.28;;;;;;;;;;4972678;28;20047;-68
2022/03/04 10:32:26;;;;;;;8.02;5.72;;;;;;;;;;4973684;28;20513;-67
2022/03/04 10:35:31;;;;;;;13.65;8.43;;;;;;;;;;4971764;28;20039;-66
2022/03/04 10:38:36;;;;;;;15.05;8.38;;;;;;;;;;4972819;28;20038;-69
2022/03/04 10:41:49;;;;;;;11.60;7.82;;;;;;;;;;4972245;28;20400;-67
2022/03/04 10:45:04;;;;;;;15.98;7.20;;;;;;;;;;4972485;28;20035;-67
2022/03/04 10:48:13;;;;;;;11.32;7.50;;;;;;;;;;4973080;28;20057;-68
2022/03/04 10:51:32;;;;;;;13.05;6.75;;;;;;;;;;4972473;28;20049;-66
2022/03/04 10:54:37;;;;;;;9.63;6.70;;;;;;;;;;4972513;28;20051;-68
2022/03/04 10:57:43;;;;;;;10.68;6.68;;;;;;;;;;4971850;28;20376;-65
2022/03/04 11:00:49;;;;;;;12.35;6.20;;;;;;;;;;4971379;28;20054;-66
2022/03/04 11:03:53;;;;;;;12.55;6.55;;;;;;;;;;4972122;28;20039;-71
2022/03/04 11:06:57;;;;;;;14.02;5.97;;;;;;;;;;4972276;28;20046;-68
2022/03/04 11:10:03;;;;;;;11.35;6.32;;;;;;;;;;4972566;28;20050;-70
2022/03/04 11:13:09;;;;;;;8.75;6.18;;;;;;;;;;4971801;28;20058;-68
2022/03/04 11:16:13;;;;;;;10.88;6.53;;;;;;;;;;4972670;28;20063;-69
2022/03/04 11:19:18;;;;;;;7.28;5.18;;;;;;;;;;4972889;28;20047;-68
2022/03/04 11:22:23;;;;;;;7.57;5.45;;;;;;;;;;4972268;28;20039;-66
2022/03/04 11:25:36;;;;;;;11.75;6.53;;;;;;;;;;4960095;28;20046;-68
2022/03/04 11:28:42;;;;;;;9.23;6.93;;;;;;;;;;4960140;28;20046;-68
2022/03/04 11:31:46;;;;;;;13.02;6.75;;;;;;;;;;4972019;28;20038;-68
2022/03/04 11:34:51;;;;;;;15.43;7.55;;;;;;;;;;4952679;28;20043;-69
2022/03/04 11:37:55;;;;;;;14.88;7.93;;;;;;;;;;4976081;28;20046;-68
2022/03/04 11:41:00;;;;;;;16.15;7.13;;;;;;;;;;4975845;28;20057;-69
2022/03/04 11:44:10;;;;;;;12.90;6.30;;;;;;;;;;4975902;28;20059;-69
2022/03/04 11:47:18;;;;;;;10.82;6.95;;;;;;;;;;4975660;28;20050;-66
2022/03/04 11:50:27;;;;;;;14.95;8.38;;;;;;;;;;4975390;28;20037;-69
2022/03/04 11:53:32;;;;;;;13.45;7.00;;;;;;;;;;4975302;28;20475;-67
2022/03/04 11:56:52;;;;;;;13.45;8.75;;;;;;;;;;4975661;28;20057;-67
2022/03/04 12:00:12;;;;;;;13.80;8.50;;;;;;;;;;4973540;28;20153;-68
2022/03/04 12:03:20;;;;;;;19.23;9.10;;;;;;;;;;4960188;28;20285;-67
2022/03/04 12:06:25;;;;;;;14.00;8.57;;;;;;;;;;4975186;28;20046;-68
2022/03/04 12:09:32;;;;;;;10.55;7.13;;;;;;;;;;4962819;28;20042;-67
2022/03/04 12:12:36;;;;;;;11.55;7.22;;;;;;;;;;4975288;28;20519;-68
2022/03/04 12:15:44;;;;;;;11.65;7.20;;;;;;;;;;4963188;28;20403;-67
2022/03/04 12:18:48;;;;;;;9.23;6.78;;;;;;;;;;4975459;28;20046;-68
2022/03/04 12:21:57;;;;;;;10.55;6.85;;;;;;;;;;4952637;28;20491;-66
2022/03/04 12:25:02;;;;;;;16.45;8.18;;;;;;;;;;4974795;28;20398;-67
2022/03/04 12:28:14;;;;;;;14.23;7.55;;;;;;;;;;4974975;28;20054;-67
2022/03/04 12:31:24;;;;;;;12.10;7.50;;;;;;;;;;4974687;28;20376;-68
2022/03/04 12:34:31;;;;;;;14.70;7.75;;;;;;;;;;4974934;28;20047;-67
2022/03/04 12:37:38;;;;;;;15.07;9.43;;;;;;;;;;4975147;28;20035;-66
2022/03/04 12:40:42;;;;;;;15.40;10.25;;;;;;;;;;4974524;28;20053;-67
2022/03/04 12:43:49;;;;;;;23.77;11.77;;;;;;;;;;4974857;28;20050;-67
2022/03/04 12:46:54;;;;;;;19.52;10.48;;;;;;;;;;4974158;28;20049;-67
2022/03/04 12:49:59;;;;;;;13.48;10.13;;;;;;;;;;4952407;28;20062;-66
2022/03/04 12:53:23;;;;;;;14.85;11.52;;;;;;;;;;4974768;28;20046;-66
2022/03/04 12:56:27;;;;;;;24.98;11.75;;;;;;;;;;4974587;28;20419;-66
2022/03/04 12:59:42;;;;;;;14.23;9.48;;;;;;;;;;4974301;28;20062;-66
2022/03/04 13:02:46;;;;;;;12.90;9.95;;;;;;;;;;4974588;28;20402;-67
2022/03/04 13:05:51;;;;;;;28.05;11.38;;;;;;;;;;4974679;28;20046;-67
2022/03/04 13:09:03;;;;;;;23.52;13.07;;;;;;;;;;4973483;28;20042;-66
2022/03/04 13:12:08;;;;;;;17.30;11.80;;;;;;;;;;4973658;28;20045;-66
2022/03/04 13:15:14;;;;;;;30.77;14.63;;;;;;;;;;4961671;28;20049;-67
2022/03/04 13:18:20;;;;;;;21.13;11.45;;;;;;;;;;4974150;28;20063;-66
2022/03/04 13:21:38;;;;;;;47.92;11.23;;;;;;;;;;4961878;28;20054;-66
2022/03/04 13:24:46;;;;;;;21.38;10.40;;;;;;;;;;4974328;28;20041;-66
2022/03/04 13:27:54;;;;;;;16.75;10.98;;;;;;;;;;4961600;28;20054;-68
2022/03/04 13:30:59;;;;;;;15.35;8.98;;;;;;;;;;4973726;28;20073;-68
2022/03/04 13:34:05;;;;;;;19.83;10.20;;;;;;;;;;4974190;28;20049;-68
2022/03/04 13:37:09;;;;;;;31.38;12.27;;;;;;;;;;4974092;28;20050;-68
2022/03/04 13:40:17;;;;;;;18.20;11.27;;;;;;;;;;4973852;28;20073;-67
2022/03/04 13:43:28;;;;;;;21.92;10.63;;;;;;;;;;4962129;28;20038;-69
2022/03/04 13:46:33;;;;;;;14.43;9.75;;;;;;;;;;4962017;28;20041;-66
2022/03/04 13:49:45;;;;;;;15.85;10.77;;;;;;;;;;4961370;28;20494;-67
2022/03/04 13:53:05;;;;;;;18.48;9.38;;;;;;;;;;4974052;28;20525;-67
2022/03/04 13:56:09;;;;;;;17.67;10.35;;;;;;;;;;4973479;28;20045;-70
2022/03/04 13:59:14;;;;;;;15.50;9.88;;;;;;;;;;4973589;28;20045;-68
2022/03/04 14:02:18;;;;;;;18.95;10.65;;;;;;;;;;4973538;28;20404;-68
2022/03/04 14:05:27;;;;;;;19.48;9.68;;;;;;;;;;4972324;28;20046;-69
2022/03/04 14:08:31;;;;;;;15.02;9.32;;;;;;;;;;4959636;28;20039;-71
2022/03/04 14:11:36;;;;;;;15.38;8.88;;;;;;;;;;4972978;28;20050;-69
2022/03/04 14:14:41;;;;;;;17.98;8.93;;;;;;;;;;4973003;28;20057;-68
2022/03/04 14:17:53;;;;;;;16.63;8.63;;;;;;;;;;4972532;28;20051;-68
2022/03/04 14:21:03;;;;;;;17.05;8.88;;;;;;;;;;4972938;28;20054;-67
2022/03/04 14:24:07;;;;;;;16.75;8.45;;;;;;;;;;4973166;28;20046;-66
2022/03/04 14:27:12;;;;;;;14.40;9.52;;;;;;;;;;4972855;28;20049;-69
2022/03/04 14:30:17;;;;;;;19.83;8.50;;;;;;;;;;4972885;28;20039;-67
2022/03/04 14:33:21;;;;;;;15.43;8.43;;;;;;;;;;4972974;28;20054;-68
2022/03/04 14:36:26;;;;;;;12.73;9.60;;;;;;;;;;4973158;28;20052;-69
2022/03/04 14:39:30;;;;;;;10.18;7.45;;;;;;;;;;4972877;28;20506;-68
2022/03/04 14:42:35;;;;;;;11.73;7.72;;;;;;;;;;4950533;28;20454;-69
2022/03/04 14:45:40;;;;;;;24.70;8.18;;;;;;;;;;4973179;28;20047;-69
2022/03/04 14:48:46;;;;;;;11.93;7.65;;;;;;;;;;4972582;28;20053;-67
2022/03/04 14:51:51;;;;;;;12.32;7.63;;;;;;;;;;4973226;28;20053;-67
2022/03/04 14:54:56;;;;;;;11.10;7.35;;;;;;;;;;4973096;28;20047;-69
2022/03/04 14:58:01;;;;;;;11.85;7.88;;;;;;;;;;4972952;28;20054;-67
2022/03/04 15:01:08;;;;;;;17.67;6.97;;;;;;;;;;4972586;28;20509;-69
2022/03/04 15:04:13;;;;;;;8.98;6.68;;;;;;;;;;4972690;28;20039;-68
2022/03/04 15:07:18;;;;;;;10.02;6.30;;;;;;;;;;4972511;28;20042;-67
2022/03/04 15:10:24;;;;;;;11.65;6.25;;;;;;;;;;4972923;28;20042;-68
2022/03/04 15:13:28;;;;;;;9.82;6.97;;;;;;;;;;4961111;28;20505;-68
2022/03/04 15:16:32;;;;;;;11.35;5.70;;;;;;;;;;4973422;28;20385;-67
2022/03/04 15:19:39;;;;;;;14.45;6.63;;;;;;;;;;4972569;28;20039;-69
2022/03/04 15:22:46;;;;;;;10.15;5.85;;;;;;;;;;4972881;28;20047;-69
2022/03/04 15:25:51;;;;;;;16.48;7.07;;;;;;;;;;4972670;28;20399;-67
2022/03/04 15:28:56;;;;;;;22.08;7.50;;;;;;;;;;4960482;28;20046;-68
2022/03/04 15:32:04;;;;;;;11.15;8.70;;;;;;;;;;4959348;28;20054;-68
2022/03/04 15:35:09;;;;;;;12.32;6.32;;;;;;;;;;4972224;28;20050;-69
2022/03/04 15:38:15;;;;;;;20.00;6.07;;;;;;;;;;4972678;28;20066;-68
2022/03/04 15:41:19;;;;;;;17.33;7.40;;;;;;;;;;4972162;28;20058;-69
2022/03/04 15:44:25;;;;;;;11.88;6.63;;;;;;;;;;4973248;28;20046;-68
2022/03/04 15:47:30;;;;;;;14.57;6.85;;;;;;;;;;4972576;28;20046;-68
2022/03/04 15:50:34;;;;;;;19.10;7.63;;;;;;;;;;4972510;28;20046;-67
2022/03/04 15:53:38;;;;;;;13.70;7.18;;;;;;;;;;4971895;28;20049;-68
2022/03/04 15:56:43;;;;;;;12.27;6.40;;;;;;;;;;4960335;28;20057;-67
2022/03/04 15:59:47;;;;;;;14.15;7.25;;;;;;;;;;4971962;28;20054;-69
2022/03/04 16:02:51;;;;;;;12.27;6.05;;;;;;;;;;4972416;28;20399;-68
2022/03/04 16:05:57;;;;;;;9.05;6.53;;;;;;;;;;4972846;28;20043;-68
2022/03/04 16:09:02;;;;;;;14.15;7.57;;;;;;;;;;4971670;28;20039;-68
2022/03/04 16:12:07;;;;;;;10.48;7.35;;;;;;;;;;4971735;28;20046;-68
2022/03/04 16:15:12;;;;;;;15.57;7.38;;;;;;;;;;4959561;28;20596;-69
2022/03/04 16:18:16;;;;;;;16.55;7.32;;;;;;;;;;4959889;28;20058;-68
2022/03/04 16:21:22;;;;;;;13.73;6.65;;;;;;;;;;4974886;28;20052;-69
2022/03/04 16:24:26;;;;;;;11.23;6.82;;;;;;;;;;4975014;28;20030;-69
2022/03/04 16:27:30;;;;;;;10.10;6.82;;;;;;;;;;4975070;28;20043;-69
2022/03/04 16:30:35;;;;;;;13.13;7.22;;;;;;;;;;4975964;28;20498;-68
2022/03/04 16:33:42;;;;;;;14.45;7.97;;;;;;;;;;4975454;28;20050;-69
2022/03/04 16:36:47;;;;;;;13.77;8.38;;;;;;;;;;4975022;28;20043;-68
2022/03/04 16:39:51;;;;;;;15.95;10.13;;;;;;;;;;4974902;28;20043;-67
2022/03/04 16:42:55;;;;;;;14.93;9.30;;;;;;;;;;4974693;28;20042;-67
2022/03/04 16:46:00;;;;;;;12.90;7.68;;;;;;;;;;4962830;28;20034;-67
2022/03/04 16:49:05;;;;;;;23.98;8.73;;;;;;;;;;4974553;28;20043;-68
2022/03/04 16:52:10;;;;;;;18.65;7.65;;;;;;;;;;4974713;28;20058;-67
2022/03/04 16:55:14;;;;;;;17.80;7.75;;;;;;;;;;4974683;28;20039;-67
2022/03/04 16:58:19;;;;;;;15.98;8.27;;;;;;;;;;4974698;28;20039;-67
2022/03/04 17:01:23;;;;;;;13.57;9.27;;;;;;;;;;4974104;28;20051;-67
2022/03/04 17:04:28;;;;;;;13.30;8.15;;;;;;;;;;4974608;28;20047;-67
2022/03/04 17:07:32;;;;;;;20.80;10.45;;;;;;;;;;4973919;28;20038;-70
2022/03/04 17:10:36;;;;;;;24.10;10.23;;;;;;;;;;4972942;28;20038;-67
2022/03/04 17:13:41;;;;;;;29.77;18.23;;;;;;;;;;4973640;28;20045;-67
2022/03/04 17:16:46;;;;;;;30.83;20.88;;;;;;;;;;4961862;28;20041;-68
2022/03/04 17:19:50;;;;;;;26.83;17.02;;;;;;;;;;4973764;28;20143;-68
2022/03/04 17:22:54;;;;;;;42.22;23.90;;;;;;;;;;4973799;28;20050;-70
2022/03/04 17:25:59;;;;;;;21.38;16.85;;;;;;;;;;4950638;28;20049;-69
2022/03/04 17:29:03;;;;;;;26.52;17.23;;;;;;;;;;4973441;28;20141;-69
2022/03/04 17:32:07;;;;;;;23.20;16.08;;;;;;;;;;4973205;28;20053;-68
2022/03/04 17:35:12;;;;;;;22.60;14.45;;;;;;;;;;4973661;28;20050;-70
2022/03/04 17:38:17;;;;;;;25.75;17.15;;;;;;;;;;4973279;28;20061;-70
2022/03/04 17:41:22;;;;;;;28.85;17.92;;;;;;;;;;4972926;28;20065;-70
2022/03/04 17:44:28;;;;;;;33.67;21.20;;;;;;;;;;4973335;28;20046;-68
2022/03/04 17:47:32;;;;;;;27.45;18.92;;;;;;;;;;4973290;28;20402;-69
2022/03/04 17:50:37;;;;;;;32.17;19.95;;;;;;;;;;4973392;28;20075;-69
2022/03/04 17:53:43;;;;;;;31.33;21.63;;;;;;;;;;4972718;28;20053;-67
2022/03/04 17:56:48;;;;;;;26.73;17.70;;;;;;;;;;4972721;28;20391;-69
2022/03/04 17:59:52;;;;;;;35.20;19.83;;;;;;;;;;4972582;28;20054;-70
2022/03/04 18:02:57;;;;;;;24.63;17.25;;;;;;;;;;4972891;28;20061;-69